Time;durP1;ratioP1;P1;durP2;ratioP2;P2;SDS_P1;SDS_P2;PMS_P1;PMS_P2;Temp;Humidity;BMP_temperature;BMP_pressure;BME280_temperature;BME280_humidity;BME280_pressure;Samples;Min_cycle;Max_cycle;Signal;HPM_P1;HPM_P2
2021/12/19 00:09:02;;;;;;;48.90;21.87;;;7.70;99.90;;;;;;5033826;28;20288;-60
2021/12/19 00:11:29;;;;;;;49.97;22.03;;;7.70;99.90;;;;;;5043124;28;20176;-60
2021/12/19 00:13:56;;;;;;;49.93;21.60;;;7.70;99.90;;;;;;5031054;28;20173;-60
2021/12/19 00:16:23;;;;;;;50.13;22.33;;;7.70;99.90;;;;;;5030825;28;20173;-60
2021/12/19 00:18:50;;;;;;;54.50;22.47;;;7.80;99.90;;;;;;5037386;28;20226;-61
2021/12/19 00:21:20;;;;;;;50.80;22.07;;;7.80;99.90;;;;;;5050662;28;20166;-60
2021/12/19 00:23:48;;;;;;;47.27;20.03;;;7.80;99.90;;;;;;5050243;28;20233;-60
2021/12/19 00:26:15;;;;;;;54.80;21.90;;;7.80;99.90;;;;;;5032520;28;20656;-60
2021/12/19 00:28:42;;;;;;;49.77;21.33;;;7.80;99.90;;;;;;5030672;28;20174;-61
2021/12/19 00:31:09;;;;;;;54.80;21.57;;;7.80;99.90;;;;;;5030503;28;20533;-60
2021/12/19 00:33:37;;;;;;;50.87;22.13;;;7.80;99.90;;;;;;5031080;28;20177;-61
2021/12/19 00:36:04;;;;;;;43.47;19.77;;;7.80;99.90;;;;;;5030037;28;20186;-60
2021/12/19 00:38:31;;;;;;;49.47;19.20;;;7.80;99.90;;;;;;5030669;28;20232;-61
2021/12/19 00:40:57;;;;;;;48.33;20.87;;;7.80;99.90;;;;;;5030366;28;20167;-60
2021/12/19 00:43:33;;;;;;;49.43;21.07;;;7.70;99.90;;;;;;5030288;28;20284;-61
2021/12/19 00:46:09;;;;;;;44.50;19.13;;;7.70;99.90;;;;;;5030282;28;20650;-61
2021/12/19 00:48:39;;;;;;;46.60;19.07;;;7.60;99.90;;;;;;5030435;28;20184;-59
2021/12/19 00:51:06;;;;;;;48.00;18.53;;;7.60;99.90;;;;;;5030560;28;20201;-64
2021/12/19 00:53:32;;;;;;;48.23;18.33;;;7.60;99.90;;;;;;5032270;28;20182;-60
2021/12/19 00:55:58;;;;;;;44.07;17.87;;;7.60;99.90;;;;;;5030163;28;20166;-61
2021/12/19 00:58:24;;;;;;;47.17;17.87;;;7.60;99.90;;;;;;5030292;28;20690;-61
2021/12/19 01:00:50;;;;;;;45.03;16.67;;;7.70;99.90;;;;;;5028941;28;20173;-61
2021/12/19 01:03:16;;;;;;;48.07;17.07;;;7.70;99.90;;;;;;5030492;28;20212;-61
2021/12/19 01:05:43;;;;;;;45.37;17.73;;;7.70;99.90;;;;;;5030314;28;20188;-61
2021/12/19 01:08:13;;;;;;;45.33;17.50;;;7.60;99.90;;;;;;5030491;28;20216;-66
2021/12/19 01:10:43;;;;;;;44.60;18.03;;;7.70;99.90;;;;;;5033208;28;20170;-60
2021/12/19 01:13:09;;;;;;;46.93;18.33;;;7.60;99.90;;;;;;5033686;28;20178;-60
2021/12/19 01:15:35;;;;;;;44.27;16.37;;;7.70;99.90;;;;;;5033763;28;20174;-60
2021/12/19 01:18:01;;;;;;;45.07;17.47;;;7.70;99.90;;;;;;5034123;28;20162;-60
2021/12/19 01:20:30;;;;;;;46.43;17.60;;;7.70;99.90;;;;;;5033625;28;20193;-60
2021/12/19 01:22:56;;;;;;;44.20;16.83;;;7.70;99.90;;;;;;5033230;28;20275;-60
2021/12/19 01:25:22;;;;;;;46.47;17.30;;;7.70;99.90;;;;;;5033609;28;20202;-60
2021/12/19 01:27:48;;;;;;;44.40;17.00;;;7.80;99.90;;;;;;5033622;28;20275;-60
2021/12/19 01:30:15;;;;;;;42.43;14.90;;;7.70;99.90;;;;;;5032971;28;20178;-60
2021/12/19 01:32:41;;;;;;;40.73;15.13;;;7.70;99.90;;;;;;5033432;28;20166;-61
2021/12/19 01:35:14;;;;;;;39.90;15.23;;;7.60;99.90;;;;;;5033828;28;20174;-60
2021/12/19 01:37:40;;;;;;;43.67;15.47;;;7.70;99.90;;;;;;5033276;28;20162;-60
2021/12/19 01:40:08;;;;;;;38.77;15.70;;;7.60;99.90;;;;;;5033330;28;20182;-60
2021/12/19 01:42:37;;;;;;;42.23;15.10;;;7.70;99.90;;;;;;5033058;28;20719;-59
2021/12/19 01:45:05;;;;;;;35.17;13.13;;;7.70;99.90;;;;;;5031576;28;20615;-60
2021/12/19 01:47:31;;;;;;;32.97;13.63;;;7.70;99.90;;;;;;5033534;28;20174;-60
2021/12/19 01:49:57;;;;;;;36.37;13.77;;;7.60;99.90;;;;;;5033141;28;20181;-60
2021/12/19 01:52:24;;;;;;;40.13;14.13;;;7.60;99.90;;;;;;5032958;28;20216;-60
2021/12/19 01:54:51;;;;;;;41.93;14.57;;;7.70;99.90;;;;;;5033149;28;20166;-60
2021/12/19 01:57:17;;;;;;;41.50;15.03;;;7.70;99.90;;;;;;5033353;28;20251;-59
2021/12/19 01:59:43;;;;;;;33.77;13.47;;;7.70;99.90;;;;;;5032518;28;20206;-60
2021/12/19 02:02:09;;;;;;;39.60;14.10;;;7.60;99.90;;;;;;5032808;28;20172;-61
2021/12/19 02:04:35;;;;;;;38.87;14.50;;;7.50;99.90;;;;;;5033230;28;20214;-60
2021/12/19 02:07:02;;;;;;;36.53;13.50;;;7.50;99.90;;;;;;5032971;28;20170;-60
2021/12/19 02:09:28;;;;;;;38.37;14.00;;;7.60;99.90;;;;;;5032838;28;20724;-61
2021/12/19 02:11:54;;;;;;;37.13;13.47;;;7.60;99.90;;;;;;5032945;28;20200;-60
2021/12/19 02:14:20;;;;;;;37.63;13.07;;;7.60;99.90;;;;;;5031018;28;20656;-60
2021/12/19 02:16:46;;;;;;;35.97;12.93;;;7.60;99.90;;;;;;5035571;28;20174;-61
2021/12/19 02:19:13;;;;;;;30.40;11.27;;;7.60;99.90;;;;;;5048474;28;20256;-60
2021/12/19 02:21:39;;;;;;;34.27;12.50;;;7.60;99.90;;;;;;5048894;28;20208;-61
2021/12/19 02:24:10;;;;;;;30.70;11.80;;;7.60;99.90;;;;;;5032309;28;20208;-60
2021/12/19 02:26:38;;;;;;;37.03;12.83;;;7.50;99.90;;;;;;5032536;28;20228;-60
2021/12/19 02:29:05;;;;;;;33.73;12.57;;;7.50;99.90;;;;;;5032198;28;20189;-61
2021/12/19 02:31:31;;;;;;;32.93;13.07;;;7.50;99.90;;;;;;5033281;28;20178;-61
2021/12/19 02:34:37;;;;;;;35.27;13.07;;;7.50;99.90;;;;;;5032608;28;20228;-61
2021/12/19 02:50:21;;;;;;;30.87;11.13;;;7.40;99.90;;;;;;5031647;28;20374;-61
2021/12/19 02:52:47;;;;;;;28.27;10.83;;;7.40;99.90;;;;;;5030877;28;20224;-61
2021/12/19 02:55:15;;;;;;;26.57;11.13;;;7.50;99.90;;;;;;5031464;28;20548;-61
2021/12/19 02:57:41;;;;;;;30.47;11.27;;;7.20;99.90;;;;;;5032378;28;20284;-61
2021/12/19 03:00:11;;;;;;;22.20;9.13;;;7.40;99.90;;;;;;5031978;28;20181;-61
2021/12/19 03:02:36;;;;;;;28.83;9.47;;;7.30;99.90;;;;;;5032185;28;20202;-60
2021/12/19 03:05:03;;;;;;;26.50;8.77;;;7.20;99.90;;;;;;5031966;28;20240;-61
2021/12/19 03:07:30;;;;;;;25.13;9.37;;;7.20;99.90;;;;;;5031710;28;20189;-60
2021/12/19 03:18:10;;;;;;;33.90;11.67;;;7.00;99.90;;;;;;5032324;28;20236;-60
2021/12/19 03:20:37;;;;;;;32.87;10.43;;;7.10;99.90;;;;;;5030907;28;20177;-60
2021/12/19 03:23:04;;;;;;;28.13;10.90;;;7.00;99.90;;;;;;5030479;28;20253;-69
2021/12/19 03:25:32;;;;;;;37.50;11.87;;;7.10;99.90;;;;;;5032974;28;20204;-60
2021/12/19 03:27:58;;;;;;;36.67;11.60;;;7.10;99.90;;;;;;5031979;28;20178;-61
2021/12/19 03:30:24;;;;;;;32.67;10.17;;;7.10;99.90;;;;;;5030786;28;20186;-60
2021/12/19 03:32:50;;;;;;;37.67;11.57;;;7.20;99.90;;;;;;5030939;28;20707;-60
2021/12/19 03:35:16;;;;;;;34.33;11.47;;;7.20;99.90;;;;;;5030857;28;20182;-61
2021/12/19 03:37:43;;;;;;;34.00;11.70;;;7.20;99.90;;;;;;5031042;28;20174;-60
2021/12/19 03:40:13;;;;;;;31.80;11.27;;;7.20;99.90;;;;;;5030947;28;20178;-60
2021/12/19 03:42:47;;;;;;;29.40;11.43;;;7.20;99.90;;;;;;5030793;28;20261;-61
2021/12/19 03:45:20;;;;;;;33.80;11.13;;;7.20;99.90;;;;;;5030955;28;20288;-60
2021/12/19 03:47:46;;;;;;;32.33;12.20;;;7.30;99.90;;;;;;5030745;28;20182;-60
2021/12/19 03:50:16;;;;;;;33.40;12.77;;;7.30;99.90;;;;;;5030544;28;20617;-60
2021/12/19 03:52:42;;;;;;;31.40;11.73;;;7.40;99.90;;;;;;5031556;28;20177;-60
2021/12/19 03:55:08;;;;;;;29.10;11.37;;;7.40;99.90;;;;;;5031033;28;20532;-61
2021/12/19 03:57:34;;;;;;;32.13;12.57;;;7.30;99.90;;;;;;5030702;28;20196;-61
2021/12/19 04:00:00;;;;;;;27.93;11.77;;;7.40;99.90;;;;;;5030950;28;20169;-61
2021/12/19 04:02:29;;;;;;;30.50;12.27;;;7.30;99.90;;;;;;5030932;28;20579;-60
2021/12/19 04:05:03;;;;;;;26.10;11.37;;;7.30;99.90;;;;;;5030453;28;20221;-61
2021/12/19 04:07:29;;;;;;;20.70;9.33;;;7.30;99.90;;;;;;5030621;28;20300;-60
2021/12/19 04:09:55;;;;;;;23.07;9.90;;;7.10;99.90;;;;;;5030542;28;20174;-61
2021/12/19 04:12:25;;;;;;;22.97;9.90;;;7.20;99.90;;;;;;5030860;28;20206;-60
2021/12/19 04:14:50;;;;;;;19.60;9.10;;;7.10;99.90;;;;;;5030758;28;20642;-60
2021/12/19 04:17:16;;;;;;;21.47;9.60;;;7.10;99.90;;;;;;5030427;28;20184;-60
2021/12/19 04:19:42;;;;;;;21.87;10.20;;;7.10;99.90;;;;;;5030302;28;20213;-61
2021/12/19 04:22:08;;;;;;;25.73;10.13;;;7.10;99.90;;;;;;5030315;28;20683;-60
2021/12/19 04:24:34;;;;;;;21.10;9.27;;;7.00;99.90;;;;;;5030171;28;20680;-60
2021/12/19 04:27:00;;;;;;;23.93;9.33;;;6.90;99.90;;;;;;5030294;28;20174;-60
2021/12/19 04:29:26;;;;;;;29.03;9.87;;;6.90;99.90;;;;;;5030125;28;20235;-60
2021/12/19 04:31:53;;;;;;;24.23;9.33;;;6.90;99.90;;;;;;5030984;28;20174;-60
2021/12/19 04:34:23;;;;;;;20.27;8.87;;;7.00;99.90;;;;;;5030135;28;20174;-60
2021/12/19 04:36:54;;;;;;;23.03;9.43;;;7.00;99.90;;;;;;5030186;28;20312;-60
2021/12/19 04:39:39;;;;;;;20.07;9.00;;;6.90;99.90;;;;;;5030625;28;20520;-60
2021/12/19 05:03:45;;;;;;;18.43;7.33;;;7.10;99.90;;;;;;5033622;28;20166;-60
2021/12/19 05:14:16;;;;;;;16.03;5.70;;;6.90;99.90;;;;;;5053987;28;20216;-60
2021/12/19 05:16:44;;;;;;;15.83;6.27;;;6.90;99.90;;;;;;5053621;28;20227;-59
2021/12/19 05:22:03;;;;;;;12.43;5.50;;;7.00;99.90;;;;;;5051633;28;20225;-59
2021/12/19 05:24:46;;;;;;;17.53;6.63;;;7.00;99.90;;;;;;5053283;28;20221;-60
2021/12/19 05:27:12;;;;;;;13.73;5.53;;;7.00;99.90;;;;;;5053441;28;20279;-60
2021/12/19 05:29:38;;;;;;;12.00;5.53;;;6.90;99.90;;;;;;5053354;28;20695;-60
2021/12/19 05:32:05;;;;;;;12.33;5.70;;;6.90;99.90;;;;;;5053327;28;20173;-60
2021/12/19 05:34:31;;;;;;;13.60;5.17;;;6.90;99.90;;;;;;5052049;28;20177;-61
2021/12/19 05:45:12;;;;;;;11.13;5.33;;;6.80;99.90;;;;;;5033081;28;20220;-60
2021/12/19 05:47:46;;;;;;;13.90;4.87;;;6.80;99.90;;;;;;5033344;28;20213;-60
2021/12/19 05:50:14;;;;;;;11.97;4.47;;;6.80;99.90;;;;;;5033090;28;20174;-61
2021/12/19 05:52:40;;;;;;;10.07;4.53;;;6.70;99.90;;;;;;5033069;28;20532;-61
2021/12/19 05:55:07;;;;;;;9.07;4.50;;;6.80;99.90;;;;;;5033117;28;20252;-61
2021/12/19 05:57:33;;;;;;;10.07;4.27;;;6.70;99.90;;;;;;5040329;28;20292;-60
2021/12/19 05:59:59;;;;;;;12.23;4.90;;;6.60;99.90;;;;;;5053025;28;20178;-60
2021/12/19 06:02:26;;;;;;;12.17;5.00;;;6.50;99.90;;;;;;5037344;28;20174;-60
2021/12/19 06:04:52;;;;;;;13.70;5.03;;;6.50;99.90;;;;;;5033913;28;20210;-60
2021/12/19 06:07:18;;;;;;;10.93;4.80;;;6.40;99.90;;;;;;5032531;28;20647;-66
2021/12/19 06:09:44;;;;;;;11.77;4.90;;;6.50;99.90;;;;;;5032812;28;20249;-61
2021/12/19 06:12:10;;;;;;;10.57;4.47;;;6.50;99.90;;;;;;5032557;28;20258;-60
2021/12/19 06:14:35;;;;;;;10.63;4.83;;;6.50;99.90;;;;;;5033188;28;20178;-60
2021/12/19 06:17:03;;;;;;;11.33;4.30;;;6.50;99.90;;;;;;5032734;28;20625;-60
2021/12/19 06:19:29;;;;;;;7.63;3.60;;;6.50;99.90;;;;;;5032691;28;20200;-60
2021/12/19 06:21:55;;;;;;;6.20;3.00;;;6.50;99.90;;;;;;5040508;28;20623;-60
2021/12/19 06:24:22;;;;;;;6.17;3.10;;;6.40;99.90;;;;;;5052645;28;20217;-60
2021/12/19 06:26:48;;;;;;;6.00;2.93;;;6.30;99.90;;;;;;5052083;28;20175;-60
2021/12/19 06:29:14;;;;;;;6.50;2.80;;;6.20;99.90;;;;;;5037979;28;20523;-60
2021/12/19 06:31:40;;;;;;;6.63;3.00;;;6.20;99.90;;;;;;5031822;28;20177;-60
2021/12/19 06:34:06;;;;;;;6.97;3.30;;;6.20;99.90;;;;;;5032150;28;20189;-60
2021/12/19 06:36:31;;;;;;;7.03;3.40;;;6.30;99.90;;;;;;5033120;28;20182;-59
2021/12/19 06:38:58;;;;;;;6.27;2.97;;;6.30;99.90;;;;;;5032022;28;20205;-60
2021/12/19 06:41:24;;;;;;;6.93;3.37;;;6.30;99.90;;;;;;5032126;28;20257;-59
2021/12/19 06:43:49;;;;;;;5.77;2.97;;;6.20;99.90;;;;;;5031860;28;20613;-60
2021/12/19 06:46:16;;;;;;;6.87;3.13;;;6.30;99.90;;;;;;5031828;28;20178;-60
2021/12/19 06:48:42;;;;;;;6.60;3.10;;;6.40;99.90;;;;;;5032016;28;20604;-60
2021/12/19 06:51:08;;;;;;;5.43;2.90;;;6.30;99.90;;;;;;5031834;28;20281;-60
2021/12/19 06:53:35;;;;;;;4.77;2.70;;;6.30;99.90;;;;;;5031766;28;20243;-61
2021/12/19 06:56:00;;;;;;;6.00;2.93;;;6.30;99.90;;;;;;5032225;28;20178;-62
2021/12/19 06:58:26;;;;;;;6.40;3.07;;;6.30;99.90;;;;;;5037693;28;20529;-61
2021/12/19 07:00:52;;;;;;;6.17;2.93;;;6.30;99.90;;;;;;5051823;28;20263;-62
2021/12/19 07:03:23;;;;;;;6.70;3.00;;;6.30;99.90;;;;;;5051492;28;20172;-60
2021/12/19 07:05:51;;;;;;;5.63;2.90;;;6.30;99.90;;;;;;5051464;28;20184;-60
2021/12/19 07:08:18;;;;;;;6.03;3.30;;;6.30;99.90;;;;;;5051425;28;20679;-60
2021/12/19 07:10:44;;;;;;;5.10;3.00;;;6.30;99.90;;;;;;5051738;28;20173;-60
2021/12/19 07:13:10;;;;;;;5.07;2.80;;;6.30;99.90;;;;;;5051705;28;20177;-60
2021/12/19 07:15:35;;;;;;;5.10;3.00;;;6.30;99.90;;;;;;5051490;28;20524;-60
2021/12/19 07:18:06;;;;;;;5.40;3.17;;;6.30;99.90;;;;;;5049380;28;20181;-60
2021/12/19 07:20:32;;;;;;;8.23;3.87;;;6.30;99.90;;;;;;5042468;28;20277;-60
2021/12/19 07:22:58;;;;;;;5.73;3.07;;;6.20;99.90;;;;;;5031086;28;20308;-60
2021/12/19 07:25:24;;;;;;;6.40;3.13;;;6.10;99.90;;;;;;5032699;28;20419;-60
2021/12/19 07:27:50;;;;;;;7.17;3.00;;;6.00;99.90;;;;;;5031079;28;20673;-60
2021/12/19 07:30:15;;;;;;;6.33;3.30;;;6.00;99.90;;;;;;5040692;28;20272;-62
2021/12/19 07:32:41;;;;;;;5.50;3.33;;;6.00;99.90;;;;;;5041554;28;20645;-61
2021/12/19 07:35:09;;;;;;;6.33;3.33;;;5.90;99.90;;;;;;5035780;28;20264;-61
2021/12/19 07:37:38;;;;;;;4.70;3.03;;;5.90;99.90;;;;;;5038425;28;20261;-61
2021/12/19 07:40:16;;;;;;;6.23;3.50;;;5.90;99.90;;;;;;5061574;28;20659;-61
2021/12/19 07:42:43;;;;;;;7.20;3.17;;;6.00;99.90;;;;;;5031120;28;20641;-61
2021/12/19 07:45:11;;;;;;;4.90;3.17;;;6.10;99.90;;;;;;5030800;28;20304;-61
2021/12/19 07:47:38;;;;;;;5.70;3.27;;;6.10;99.90;;;;;;5031242;28;20182;-61
2021/12/19 07:50:06;;;;;;;6.03;3.33;;;6.10;99.90;;;;;;5030908;28;20181;-61
2021/12/19 07:52:32;;;;;;;5.53;3.30;;;6.10;99.90;;;;;;5030493;28;20174;-63
2021/12/19 07:54:58;;;;;;;9.47;3.50;;;6.10;99.90;;;;;;5029604;28;20177;-63
2021/12/19 07:57:23;;;;;;;7.33;3.47;;;6.10;99.90;;;;;;5048784;28;20177;-63
2021/12/19 07:59:49;;;;;;;6.60;3.70;;;6.10;99.90;;;;;;5050404;28;20251;-60
2021/12/19 08:02:15;;;;;;;6.40;3.40;;;6.20;99.90;;;;;;5050090;28;20265;-58
2021/12/19 08:04:41;;;;;;;6.33;3.43;;;6.20;99.90;;;;;;5049976;28;20219;-57
2021/12/19 08:07:08;;;;;;;11.40;4.03;;;6.10;99.90;;;;;;5050324;28;20597;-57
2021/12/19 08:09:37;;;;;;;6.63;4.20;;;5.80;99.90;;;;;;5040250;28;20181;-57
2021/12/19 08:12:05;;;;;;;5.57;3.77;;;5.70;99.90;;;;;;5049887;28;20230;-57
2021/12/19 08:14:30;;;;;;;6.27;3.50;;;5.80;99.90;;;;;;5047757;28;20184;-57
2021/12/19 08:16:56;;;;;;;10.03;3.77;;;5.80;99.90;;;;;;5049782;28;20177;-57
2021/12/19 08:19:22;;;;;;;6.07;3.40;;;5.80;99.90;;;;;;5050849;28;20657;-57
2021/12/19 08:21:48;;;;;;;6.27;3.50;;;5.80;99.90;;;;;;5053601;28;20499;-57
2021/12/19 08:24:14;;;;;;;9.87;3.87;;;5.80;99.90;;;;;;5053364;28;20213;-64
2021/12/19 08:26:42;;;;;;;7.10;4.20;;;5.90;99.90;;;;;;5054011;28;20184;-58
2021/12/19 08:29:11;;;;;;;6.77;3.90;;;5.90;99.90;;;;;;5053481;28;20692;-58
2021/12/19 08:31:37;;;;;;;8.87;4.30;;;5.90;99.90;;;;;;5046058;28;20192;-58
2021/12/19 08:34:03;;;;;;;5.43;3.50;;;5.90;99.90;;;;;;5045915;28;20173;-58
2021/12/19 08:36:29;;;;;;;7.77;4.63;;;5.80;99.90;;;;;;5048498;28;20285;-61
2021/12/19 08:38:55;;;;;;;6.47;3.80;;;5.90;99.90;;;;;;5038937;28;20182;-62
2021/12/19 08:41:20;;;;;;;5.97;3.90;;;5.80;99.90;;;;;;5034086;28;20684;-66
2021/12/19 08:43:46;;;;;;;8.27;5.70;;;5.90;99.90;;;;;;5047961;28;20421;-62
2021/12/19 08:46:12;;;;;;;7.30;4.37;;;5.90;99.90;;;;;;5053168;28;20264;-62
2021/12/19 08:48:39;;;;;;;7.53;4.27;;;5.90;99.90;;;;;;5047191;28;20212;-62
2021/12/19 08:51:05;;;;;;;6.33;3.73;;;5.80;99.90;;;;;;5046059;28;20226;-62
2021/12/19 08:53:31;;;;;;;9.67;3.77;;;5.80;99.90;;;;;;5053831;28;20461;-61
2021/12/19 08:55:57;;;;;;;6.63;3.50;;;5.90;99.90;;;;;;5039664;28;20603;-62
2021/12/19 08:58:23;;;;;;;5.60;3.43;;;5.90;99.90;;;;;;5034784;28;20694;-62
2021/12/19 09:00:49;;;;;;;6.80;3.30;;;5.90;99.90;;;;;;5034131;28;20170;-62
2021/12/19 09:03:16;;;;;;;4.97;3.07;;;5.90;99.90;;;;;;5034142;28;20213;-62
2021/12/19 09:05:42;;;;;;;5.30;2.70;;;5.80;99.90;;;;;;5044636;28;20265;-62
2021/12/19 09:08:07;;;;;;;7.73;3.10;;;5.80;99.90;;;;;;5051226;28;20711;-61
2021/12/19 09:10:33;;;;;;;5.20;2.87;;;5.80;99.90;;;;;;5041165;28;20223;-62
2021/12/19 09:12:59;;;;;;;3.97;2.77;;;5.60;99.90;;;;;;5033708;28;20167;-62
2021/12/19 09:15:25;;;;;;;5.87;3.40;;;5.40;99.90;;;;;;5033866;28;20239;-62
2021/12/19 09:17:51;;;;;;;5.13;3.47;;;5.20;99.90;;;;;;5033901;28;20632;-59
2021/12/19 09:20:17;;;;;;;6.13;4.00;;;5.40;99.90;;;;;;5033825;28;20174;-59
2021/12/19 09:22:43;;;;;;;7.13;3.87;;;5.50;99.90;;;;;;5033173;28;20210;-59
2021/12/19 09:25:09;;;;;;;7.50;4.50;;;5.60;99.90;;;;;;5033536;28;20304;-60
2021/12/19 09:27:35;;;;;;;5.43;3.13;;;5.70;99.90;;;;;;5034719;28;20188;-59
2021/12/19 09:30:01;;;;;;;5.97;4.10;;;5.70;99.90;;;;;;5032731;28;20430;-59
2021/12/19 09:32:27;;;;;;;6.93;3.83;;;5.70;99.90;;;;;;5033347;28;20213;-61
2021/12/19 09:34:54;;;;;;;5.93;3.50;;;5.80;99.90;;;;;;5035333;28;20201;-58
2021/12/19 09:37:20;;;;;;;8.00;4.10;;;5.80;99.90;;;;;;5049197;28;20212;-58
2021/12/19 09:39:49;;;;;;;6.87;3.20;;;5.80;99.90;;;;;;5033393;28;20170;-59
2021/12/19 09:42:19;;;;;;;8.10;3.83;;;5.80;99.90;;;;;;5033521;28;20174;-59
2021/12/19 09:44:46;;;;;;;4.50;3.13;;;5.70;99.90;;;;;;5032747;28;20263;-58
2021/12/19 09:47:11;;;;;;;5.63;3.57;;;5.70;99.90;;;;;;5033085;28;20176;-59
2021/12/19 09:49:37;;;;;;;5.20;3.23;;;5.80;99.90;;;;;;5032931;28;20253;-58
2021/12/19 09:52:08;;;;;;;5.77;3.40;;;5.90;99.90;;;;;;5032876;28;20170;-58
2021/12/19 09:54:36;;;;;;;7.20;4.60;;;5.90;99.90;;;;;;5033709;28;20178;-59
2021/12/19 09:57:03;;;;;;;5.50;3.33;;;6.00;99.90;;;;;;5033202;28;20159;-58
2021/12/19 09:59:28;;;;;;;5.60;3.53;;;6.10;99.90;;;;;;5033315;28;20174;-59
2021/12/19 10:01:54;;;;;;;4.73;2.83;;;6.20;99.90;;;;;;5033854;28;20192;-59
2021/12/19 10:04:29;;;;;;;5.17;2.80;;;6.40;99.90;;;;;;5042181;28;20224;-59
2021/12/19 10:07:09;;;;;;;5.27;3.10;;;6.60;99.90;;;;;;5051065;28;20178;-59
2021/12/19 10:09:38;;;;;;;3.83;2.40;;;6.70;99.90;;;;;;5041847;28;20249;-59
2021/12/19 10:14:54;;;;;;;7.10;3.00;;;6.00;99.90;;;;;;5045206;28;20208;-58
2021/12/19 10:17:20;;;;;;;6.33;3.10;;;6.10;99.90;;;;;;5052535;28;20294;-59
2021/12/19 10:19:53;;;;;;;4.93;3.00;;;6.00;99.90;;;;;;5052575;28;20173;-58
2021/12/19 10:22:26;;;;;;;6.13;3.47;;;5.90;99.90;;;;;;5052130;28;20209;-58
2021/12/19 10:24:58;;;;;;;5.87;3.10;;;5.90;99.90;;;;;;5051773;28;20205;-58
2021/12/19 10:27:57;;;;;;;5.83;3.00;;;5.90;99.90;;;;;;5047434;28;20181;-58
2021/12/19 10:30:36;;;;;;;9.23;2.90;;;5.80;99.90;;;;;;5019989;28;20236;-58
2021/12/19 10:33:03;;;;;;;5.33;3.03;;;5.60;99.90;;;;;;5039525;28;20201;-59
2021/12/19 10:35:39;;;;;;;9.10;3.97;;;5.50;99.90;;;;;;5032424;28;20162;-61
2021/12/19 10:38:26;;;;;;;8.97;3.30;;;5.50;99.90;;;;;;5052181;28;20185;-62
2021/12/19 10:41:07;;;;;;;9.53;4.03;;;5.40;99.90;;;;;;5051389;28;20181;-63
2021/12/19 10:43:40;;;;;;;9.23;3.97;;;5.40;99.90;;;;;;5039990;28;20259;-62
2021/12/19 10:46:09;;;;;;;9.00;4.37;;;5.60;99.90;;;;;;5046556;28;20260;-62
2021/12/19 10:48:44;;;;;;;8.23;3.97;;;5.30;99.90;;;;;;5044497;28;20177;-62
2021/12/19 10:51:18;;;;;;;7.47;3.77;;;5.30;99.90;;;;;;5050328;28;20234;-62
2021/12/19 10:53:53;;;;;;;7.47;3.57;;;5.60;99.90;;;;;;5035719;28;20178;-62
2021/12/19 10:56:24;;;;;;;6.93;3.93;;;5.60;99.90;;;;;;5045007;28;20542;-60
2021/12/19 10:58:57;;;;;;;6.43;3.27;;;5.60;99.90;;;;;;5049517;28;20204;-60
2021/12/19 11:01:29;;;;;;;6.20;2.93;;;5.60;99.90;;;;;;5038042;28;20171;-60
2021/12/19 11:04:13;;;;;;;6.03;3.33;;;6.10;99.90;;;;;;5049922;28;20217;-59
2021/12/19 11:06:45;;;;;;;8.90;3.43;;;6.10;99.90;;;;;;5032709;28;20205;-60
2021/12/19 11:09:24;;;;;;;6.17;3.17;;;5.90;99.90;;;;;;5042477;28;20692;-61
2021/12/19 11:11:57;;;;;;;5.37;3.00;;;6.00;99.90;;;;;;5031583;28;20648;-61
2021/12/19 11:14:25;;;;;;;5.03;2.80;;;6.30;99.90;;;;;;5049429;28;20582;-62
2021/12/19 11:16:56;;;;;;;5.03;2.67;;;6.30;99.90;;;;;;5049416;28;20227;-61
2021/12/19 11:19:24;;;;;;;4.27;2.67;;;6.40;99.90;;;;;;5033965;28;20168;-61
2021/12/19 11:21:51;;;;;;;3.93;2.63;;;6.40;99.90;;;;;;5032234;28;20223;-61
2021/12/19 11:24:19;;;;;;;5.63;3.07;;;6.60;99.90;;;;;;5031416;28;20771;-61
2021/12/19 11:26:48;;;;;;;5.90;2.57;;;6.50;99.90;;;;;;5031528;28;20312;-62
2021/12/19 11:29:14;;;;;;;4.70;2.90;;;6.80;99.90;;;;;;5046126;28;20652;-61
2021/12/19 11:31:45;;;;;;;3.40;2.33;;;6.80;99.90;;;;;;5035564;28;20208;-61
2021/12/19 11:34:24;;;;;;;4.40;2.90;;;7.00;99.90;;;;;;5046784;28;20666;-61
2021/12/19 11:37:16;;;;;;;4.97;2.53;;;7.10;99.90;;;;;;5032001;28;20178;-61
2021/12/19 11:39:49;;;;;;;4.83;2.87;;;7.20;99.90;;;;;;5034680;28;20197;-61
2021/12/19 11:42:17;;;;;;;4.83;3.13;;;7.30;99.90;;;;;;5033348;28;20192;-61
2021/12/19 11:47:43;;;;;;;4.97;2.80;;;7.20;99.90;;;;;;5039046;28;20301;-60
2021/12/19 11:50:24;;;;;;;3.40;2.30;;;7.20;99.90;;;;;;5048645;28;20259;-60
2021/12/19 11:52:55;;;;;;;3.90;2.40;;;7.30;99.90;;;;;;5035916;28;20174;-59
2021/12/19 11:55:26;;;;;;;3.20;2.20;;;7.40;99.90;;;;;;5029349;28;20549;-60
2021/12/19 11:58:07;;;;;;;3.97;2.40;;;7.20;99.90;;;;;;5032642;28;20184;-60
2021/12/19 12:00:44;;;;;;;4.57;2.40;;;7.30;99.90;;;;;;5033152;28;20276;-60
2021/12/19 12:03:13;;;;;;;3.10;1.90;;;7.30;99.90;;;;;;5045712;28;20208;-60
2021/12/19 12:05:44;;;;;;;4.43;2.17;;;7.30;99.90;;;;;;5038587;28;20213;-59
2021/12/19 12:08:18;;;;;;;3.87;2.70;;;7.30;99.90;;;;;;5034113;28;20260;-60
2021/12/19 12:13:30;;;;;;;3.13;2.23;;;7.00;99.90;;;;;;5043924;28;20246;-61
2021/12/19 12:16:23;;;;;;;5.23;3.00;;;6.80;99.90;;;;;;5034380;28;20186;-61
2021/12/19 12:19:04;;;;;;;5.33;3.20;;;6.60;99.90;;;;;;5030853;28;20849;-60
2021/12/19 12:21:39;;;;;;;5.67;3.37;;;6.30;99.90;;;;;;5045593;28;20267;-60
2021/12/19 12:24:06;;;;;;;7.50;3.67;;;6.10;99.90;;;;;;5037560;28;20282;-60
2021/12/19 12:26:46;;;;;;;4.37;2.73;;;6.10;99.90;;;;;;5034758;28;20178;-59
2021/12/19 12:29:12;;;;;;;4.87;3.00;;;6.20;99.90;;;;;;5041477;28;20184;-59
2021/12/19 12:31:41;;;;;;;6.20;3.40;;;6.50;99.90;;;;;;5045270;28;20543;-60
2021/12/19 12:34:09;;;;;;;4.87;3.43;;;6.80;99.90;;;;;;5033432;28;20185;-60
2021/12/19 12:36:36;;;;;;;4.33;2.90;;;6.90;99.90;;;;;;5030978;28;20186;-59
2021/12/19 12:39:08;;;;;;;4.70;3.23;;;7.00;99.90;;;;;;5032023;28;20173;-59
2021/12/19 12:41:51;;;;;;;5.60;3.07;;;7.10;99.90;;;;;;5057002;28;20210;-62
2021/12/19 12:44:22;;;;;;;5.50;3.03;;;7.10;99.90;;;;;;5050130;28;20344;-60
2021/12/19 12:46:50;;;;;;;4.43;3.20;;;7.10;99.90;;;;;;5038677;28;20907;-59
2021/12/19 12:49:20;;;;;;;7.83;3.73;;;7.10;99.90;;;;;;5030096;28;20192;-59
2021/12/19 12:52:01;;;;;;;5.80;3.57;;;7.10;99.90;;;;;;5030075;28;20625;-61
2021/12/19 12:54:34;;;;;;;5.70;3.27;;;7.00;99.90;;;;;;5029614;28;20174;-63
2021/12/19 12:57:11;;;;;;;7.63;3.83;;;7.10;99.90;;;;;;5037370;28;20193;-60
2021/12/19 12:59:42;;;;;;;7.37;3.97;;;7.10;99.90;;;;;;5033995;28;20178;-61
2021/12/19 13:02:18;;;;;;;6.33;3.77;;;7.10;99.90;;;;;;5030251;28;20209;-59
2021/12/19 13:04:49;;;;;;;5.67;3.83;;;7.10;99.90;;;;;;5044558;28;20216;-61
2021/12/19 13:07:23;;;;;;;7.23;4.23;;;7.20;99.90;;;;;;5044544;28;20197;-59
2021/12/19 13:10:00;;;;;;;7.63;4.10;;;7.20;99.90;;;;;;5033873;28;20185;-62
2021/12/19 13:12:32;;;;;;;8.87;4.57;;;7.40;99.90;;;;;;5049289;28;20246;-61
2021/12/19 13:15:09;;;;;;;13.20;5.07;;;7.50;99.90;;;;;;5055018;28;20172;-62
2021/12/19 13:17:50;;;;;;;9.80;4.27;;;7.60;99.90;;;;;;5065758;28;20181;-62
2021/12/19 13:20:18;;;;;;;8.20;4.17;;;7.50;99.90;;;;;;5033511;28;20181;-60
2021/12/19 13:22:51;;;;;;;11.50;5.30;;;7.50;99.90;;;;;;5032993;28;20264;-60
2021/12/19 13:25:27;;;;;;;8.40;5.20;;;7.50;99.90;;;;;;5033421;28;20252;-60
2021/12/19 13:27:59;;;;;;;11.47;5.83;;;7.50;99.90;;;;;;5034602;28;20678;-60
2021/12/19 13:30:27;;;;;;;13.07;6.00;;;7.50;99.90;;;;;;5035016;28;20177;-60
2021/12/19 13:32:57;;;;;;;12.40;6.20;;;7.60;99.90;;;;;;5033201;28;20170;-60
2021/12/19 13:35:42;;;;;;;13.83;5.83;;;7.60;99.90;;;;;;5033104;28;20169;-60
2021/12/19 13:38:10;;;;;;;9.90;5.60;;;7.40;99.90;;;;;;5032938;28;20174;-61
2021/12/19 13:40:45;;;;;;;13.80;6.37;;;7.40;99.90;;;;;;5048556;28;20640;-61
2021/12/19 13:43:14;;;;;;;9.00;5.27;;;7.30;99.90;;;;;;5034520;28;20239;-60
2021/12/19 13:46:09;;;;;;;11.83;6.30;;;7.30;99.90;;;;;;5034175;28;20221;-60
2021/12/19 13:48:42;;;;;;;12.43;6.10;;;7.30;99.90;;;;;;5052943;28;20235;-60
2021/12/19 13:51:30;;;;;;;15.43;5.20;;;7.20;99.90;;;;;;5046846;28;20288;-60
2021/12/19 13:53:59;;;;;;;12.43;5.17;;;7.30;99.90;;;;;;5043630;28;20178;-60
2021/12/19 13:56:30;;;;;;;7.90;4.80;;;7.40;99.90;;;;;;5033032;28;20319;-61
2021/12/19 13:59:01;;;;;;;8.20;4.80;;;7.30;99.90;;;;;;5033103;28;20197;-60
2021/12/19 14:01:28;;;;;;;9.93;4.90;;;7.00;99.90;;;;;;5032337;28;20174;-60
2021/12/19 14:03:56;;;;;;;9.13;5.27;;;7.30;99.90;;;;;;5032428;28;20212;-60
2021/12/19 14:06:31;;;;;;;9.17;5.10;;;7.10;99.90;;;;;;5032749;28;20186;-60
2021/12/19 14:09:00;;;;;;;9.07;4.90;;;7.20;99.90;;;;;;5032877;28;20169;-60
2021/12/19 14:11:28;;;;;;;8.80;4.83;;;7.20;99.90;;;;;;5032910;28;20235;-60
2021/12/19 14:14:13;;;;;;;7.63;5.10;;;7.30;99.90;;;;;;5032693;28;20224;-60
2021/12/19 14:16:45;;;;;;;9.80;5.90;;;7.30;99.90;;;;;;5032841;28;20173;-60
2021/12/19 14:19:20;;;;;;;10.77;6.20;;;7.30;99.90;;;;;;5032326;28;20185;-60